»·PEaware :: DAL2173 KSLC-KDEN

DAL2173 :: KSLC-KDEN

FLIGHT INFORMATION

Flight Status: Arrived
Operator:
Delta Air Lines
More flights by this operator :: More flights under this callsign
Pilot: Sanjiv S. (4490)
Aircraft: BOEING 737-800
(B738)
More flights by this aircraft type
Origin: KSLC Salt Lake City Intl
United States
Destination: KDEN Denver Intl
United States
More flights between these airports :: More routes between these airports
Route: +LEETZ6 CHE FRNCH3
File this flight plan on PilotEdge
Remarks:
Altitude:
(Current/Filed)
35,000ft
Speed:
(Current/Filed)
450kts
Departed: 07-Mar-18 09:26 AM
Arrived: 07-Mar-18 10:27 AM
Distance/Time
Traveled:
339nm/1:00
Distance/Time
To Go:
Arrived

Flight Plot

Page will automatically refresh every two minutes.

Flight plan parsing failed; only flown route is shown


Map Options




Map Legend


Flown Route
Filed Route
Departure Airport
Arrival Airport
Navaid (VOR, NDB)
Fix

Horizontal Profiles

Position Reports

Time Latitude Longitude Heading Altitude Ground
Speed
07-Mar-18 09:05 40.788126 -111.977862 268 4235ft 0kts
07-Mar-18 09:06 40.788126 -111.977862 268 4235ft 0kts
07-Mar-18 09:07 40.788126 -111.977862 268 4235ft 0kts
07-Mar-18 09:08 40.788126 -111.977862 268 4235ft 0kts
07-Mar-18 09:09 40.788126 -111.977862 268 4235ft 0kts
07-Mar-18 09:10 40.788126 -111.977862 268 4235ft 0kts
07-Mar-18 09:11 40.788126 -111.977862 268 4235ft 0kts
07-Mar-18 09:12 40.788126 -111.977862 268 4235ft 0kts
07-Mar-18 09:13 40.788126 -111.977862 268 4235ft 0kts
07-Mar-18 09:14 40.788126 -111.977862 268 4235ft 0kts
07-Mar-18 09:15 40.788126 -111.977862 268 4235ft 0kts
07-Mar-18 09:16 40.788126 -111.977862 268 4235ft 0kts
07-Mar-18 09:17 40.788126 -111.977862 268 4235ft 0kts
07-Mar-18 09:18 40.788126 -111.977862 268 4235ft 0kts
07-Mar-18 09:19 40.788126 -111.977862 268 4235ft 0kts
07-Mar-18 09:20 40.788126 -111.977861 268 4235ft 0kts
07-Mar-18 09:21 40.788133 -111.977611 267 4235ft 2kts
07-Mar-18 09:22 40.787897 -111.976936 326 4235ft 2kts
07-Mar-18 09:23 40.787596 -111.976808 355 4235ft 0kts
07-Mar-18 09:24 40.787596 -111.976808 355 4235ft 0kts
07-Mar-18 09:25 40.787596 -111.976808 355 4235ft 0kts
07-Mar-18 09:26 40.789744 -111.977073 354 4235ft 15kts
07-Mar-18 09:27 40.795374 -111.977726 354 4235ft 25kts
07-Mar-18 09:28 40.803240 -111.978295 9 4235ft 28kts
07-Mar-18 09:29 40.807160 -111.978515 33 4235ft 0kts
07-Mar-18 09:30 40.807160 -111.978515 33 4235ft 0kts
07-Mar-18 09:31 40.807234 -111.978444 37 4235ft 0kts
07-Mar-18 09:32 40.806902 -111.976861 172 4235ft 6kts
07-Mar-18 09:33 40.787739 -111.974184 169 4329ft 181kts
07-Mar-18 09:34 40.748017 -112.008967 261 6774ft 242kts
07-Mar-18 09:35 40.769611 -112.089411 315 9979ft 256kts
07-Mar-18 09:36 40.828102 -112.160313 316 11955ft 310kts
07-Mar-18 09:37 40.890197 -112.230080 335 15468ft 322kts
07-Mar-18 09:38 40.978019 -112.236590 14 18622ft 353kts
07-Mar-18 09:39 41.026101 -112.121962 96 21295ft 415kts
07-Mar-18 09:40 40.997343 -111.970849 104 23733ft 438kts
07-Mar-18 09:41 40.964826 -111.812391 104 25963ft 459kts
07-Mar-18 09:42 40.931199 -111.649851 104 28243ft 469kts
07-Mar-18 09:43 40.914646 -111.482980 91 29854ft 486kts
07-Mar-18 09:44 40.900068 -111.315633 97 31806ft 491kts
07-Mar-18 09:45 40.878615 -111.138427 96 33562ft 494kts
07-Mar-18 09:46 40.857009 -110.959037 95 35140ft 496kts
07-Mar-18 09:47 40.834582 -110.774605 95 35321ft 531kts
07-Mar-18 09:48 40.810481 -110.579985 95 35316ft 540kts
07-Mar-18 09:49 40.786036 -110.385141 95 35327ft 540kts
07-Mar-18 09:50 40.763344 -110.205723 96 35314ft 540kts
07-Mar-18 09:51 40.739313 -110.010870 91 35321ft 538kts
07-Mar-18 09:52 40.726643 -109.815991 91 35329ft 538kts
07-Mar-18 09:53 40.712501 -109.619484 91 35333ft 538kts
07-Mar-18 09:54 40.698205 -109.426071 92 35331ft 526kts
07-Mar-18 09:55 40.685144 -109.252560 93 35323ft 529kts
07-Mar-18 09:56 40.670339 -109.060149 91 35326ft 536kts
07-Mar-18 09:57 40.654890 -108.864221 91 35326ft 540kts
07-Mar-18 09:58 40.639119 -108.668174 91 35332ft 540kts
07-Mar-18 09:59 40.623036 -108.473990 91 35340ft 540kts
07-Mar-18 10:00 40.609813 -108.317259 92 35323ft 540kts
07-Mar-18 10:01 40.593702 -108.127113 91 35327ft 541kts
07-Mar-18 10:02 40.577038 -107.934201 92 35339ft 541kts
07-Mar-18 10:03 40.560305 -107.745477 92 35350ft 541kts
07-Mar-18 10:04 40.542998 -107.554472 91 35353ft 541kts
07-Mar-18 10:05 40.525351 -107.362402 91 35349ft 541kts
07-Mar-18 10:06 40.514065 -107.198186 88 35329ft 538kts
07-Mar-18 10:07 40.504152 -107.003553 88 35329ft 539kts
07-Mar-18 10:08 40.493268 -106.807944 86 35336ft 537kts
07-Mar-18 10:09 40.444404 -106.621775 112 35332ft 555kts
07-Mar-18 10:10 40.433619 -106.432386 60 35336ft 495kts
07-Mar-18 10:11 40.463352 -106.276745 85 34154ft 482kts
07-Mar-18 10:12 40.451678 -106.098822 88 31680ft 493kts
07-Mar-18 10:13 40.434682 -105.921103 99 29213ft 494kts
07-Mar-18 10:14 40.406627 -105.749256 99 26748ft 472kts
07-Mar-18 10:15 40.380465 -105.585081 100 24385ft 447kts
07-Mar-18 10:16 40.354351 -105.439115 117 22290ft 397kts
07-Mar-18 10:17 40.291618 -105.333875 134 20298ft 375kts
07-Mar-18 10:18 40.227078 -105.233181 133 18187ft 353kts
07-Mar-18 10:19 40.165763 -105.137443 133 16615ft 338kts
07-Mar-18 10:20 40.105568 -105.043555 132 15565ft 339kts
07-Mar-18 10:21 40.055215 -104.965244 131 14689ft 340kts
07-Mar-18 10:22 39.984938 -104.856224 128 13658ft 312kts
07-Mar-18 10:23 39.920307 -104.806889 186 11963ft 274kts
07-Mar-18 10:24 39.870122 -104.807127 186 11346ft 268kts
07-Mar-18 10:25 39.795892 -104.808806 185 10945ft 266kts
07-Mar-18 10:26 39.717298 -104.810780 184 10205ft 234kts
07-Mar-18 10:27 39.664182 -104.807001 148 9072ft 227kts
07-Mar-18 10:28 39.643000 -104.743642 89 8253ft 179kts
07-Mar-18 10:29 39.653572 -104.687414 34 7952ft 164kts
07-Mar-18 10:30 39.692521 -104.665375 8 7899ft 149kts
07-Mar-18 10:31 39.733250 -104.659326 357 7150ft 147kts
07-Mar-18 10:32 39.773968 -104.660320 350 6365ft 142kts
07-Mar-18 10:33 39.815060 -104.660665 355 5580ft 152kts
07-Mar-18 10:34 39.846127 -104.660374 354 5327ft 39kts
07-Mar-18 10:35 39.850353 -104.662348 346 5327ft 1kts
07-Mar-18 10:36 39.851236 -104.662411 1 5327ft 4kts
07-Mar-18 10:37 39.852721 -104.662506 321 5327ft 7kts
07-Mar-18 10:38 39.852862 -104.665653 263 5327ft 8kts
07-Mar-18 10:39 39.852777 -104.668315 270 5327ft 9kts
07-Mar-18 10:40 39.853093 -104.669986 349 5327ft 6kts
07-Mar-18 10:41 39.853404 -104.670013 358 5327ft 0kts

Navigation Log

Ident Type
Flight plan parsing failed, navigation log unavailable